createdAt,value
2024-05-09T00:00:48.366Z,18.80
2024-05-09T00:03:34.610Z,18.78
2024-05-09T00:06:21.194Z,18.76
2024-05-09T00:09:07.530Z,18.74
2024-05-09T00:11:54.073Z,18.74
2024-05-09T00:14:41.116Z,18.74
2024-05-09T00:17:27.897Z,18.74
2024-05-09T00:20:20.470Z,18.71
2024-05-09T00:23:12.328Z,18.71
2024-05-09T00:26:00.037Z,18.72
2024-05-09T00:28:46.523Z,18.72
2024-05-09T00:31:32.931Z,18.75
2024-05-09T00:34:19.364Z,18.74
2024-05-09T00:37:06.082Z,18.68
2024-05-09T00:39:52.900Z,18.67
2024-05-09T00:42:39.661Z,18.74
2024-05-09T00:45:25.882Z,18.68
2024-05-09T00:48:15.266Z,18.74
2024-05-09T00:51:04.110Z,18.71
2024-05-09T00:53:50.402Z,18.68
2024-05-09T00:56:36.579Z,18.67
2024-05-09T00:59:23.893Z,18.70
2024-05-09T01:02:10.786Z,18.72
2024-05-09T01:04:57.500Z,18.72
2024-05-09T01:07:44.229Z,18.71
2024-05-09T01:10:34.805Z,18.74
2024-05-09T01:13:21.874Z,18.75
2024-05-09T01:16:08.051Z,18.73
2024-05-09T01:18:54.126Z,18.75
2024-05-09T01:21:41.715Z,18.76
2024-05-09T01:24:27.814Z,18.73
2024-05-09T01:27:13.847Z,18.71
2024-05-09T01:29:59.958Z,18.73
2024-05-09T01:32:46.410Z,18.71
2024-05-09T01:35:33.121Z,18.68
2024-05-09T01:38:20.128Z,18.64
2024-05-09T01:41:06.630Z,18.62
2024-05-09T01:43:53.301Z,18.65
2024-05-09T01:46:39.555Z,18.62
2024-05-09T01:49:25.748Z,18.62
2024-05-09T01:52:12.090Z,18.60
2024-05-09T01:54:58.374Z,18.61
2024-05-09T01:57:45.107Z,18.58
2024-05-09T02:00:39.235Z,18.54
2024-05-09T02:03:28.101Z,18.55
2024-05-09T02:06:14.607Z,18.53
2024-05-09T02:09:01.136Z,18.43
2024-05-09T02:11:47.903Z,18.48
2024-05-09T02:14:34.278Z,18.46
2024-05-09T02:17:20.952Z,18.41
2024-05-09T02:20:10.779Z,18.40
2024-05-09T02:22:59.948Z,18.41
2024-05-09T02:25:46.368Z,18.41
2024-05-09T02:28:32.545Z,18.39
2024-05-09T02:31:18.574Z,18.36
2024-05-09T02:34:04.794Z,18.35
2024-05-09T02:36:51.259Z,18.32
2024-05-09T02:39:37.192Z,18.31
2024-05-09T02:42:23.357Z,18.31
2024-05-09T02:45:09.607Z,18.29
2024-05-09T02:47:55.851Z,18.29
2024-05-09T02:50:44.397Z,18.29
2024-05-09T02:53:31.002Z,18.27
2024-05-09T02:56:17.398Z,18.29
2024-05-09T02:59:03.821Z,18.26
2024-05-09T03:01:50.021Z,18.20
2024-05-09T03:04:36.642Z,18.17
2024-05-09T03:07:23.095Z,18.23
2024-05-09T03:10:14.977Z,18.23
2024-05-09T03:13:09.381Z,18.22
2024-05-09T03:15:55.581Z,18.21
2024-05-09T03:18:41.481Z,18.20
2024-05-09T03:21:27.946Z,18.19
2024-05-09T03:24:14.056Z,18.16
2024-05-09T03:27:00.044Z,18.16
2024-05-09T03:29:46.159Z,18.15
2024-05-09T03:32:32.487Z,18.11
2024-05-09T03:35:18.941Z,18.09
2024-05-09T03:38:05.688Z,18.09
2024-05-09T03:40:52.505Z,18.07
2024-05-09T03:43:38.651Z,18.09
2024-05-09T03:46:25.179Z,18.07
2024-05-09T03:49:11.568Z,18.09
2024-05-09T03:51:58.081Z,18.10
2024-05-09T03:54:47.586Z,18.10
2024-05-09T03:57:33.725Z,18.09
2024-05-09T04:00:30.025Z,18.10
2024-05-09T04:03:21.584Z,18.10
2024-05-09T04:06:08.070Z,18.11
2024-05-09T04:08:55.111Z,18.10
2024-05-09T04:11:41.979Z,18.08
2024-05-09T04:14:28.528Z,18.08
2024-05-09T04:17:15.038Z,18.09
2024-05-09T04:20:01.626Z,18.07
2024-05-09T04:22:48.247Z,18.10
2024-05-09T04:25:34.834Z,18.08
2024-05-09T04:28:21.499Z,18.04
2024-05-09T04:31:08.012Z,18.07
2024-05-09T04:33:54.228Z,18.07
2024-05-09T04:36:43.966Z,18.01
2024-05-09T04:39:31.177Z,18.06
2024-05-09T04:42:17.030Z,18.07
2024-05-09T04:45:03.240Z,18.10
2024-05-09T04:47:49.612Z,18.10
2024-05-09T04:50:38.702Z,18.10
2024-05-09T04:53:25.950Z,18.08
2024-05-09T04:56:12.501Z,18.03
2024-05-09T04:58:59.205Z,18.09
2024-05-09T05:01:45.681Z,18.05
2024-05-09T05:04:32.735Z,18.07
2024-05-09T05:07:18.758Z,18.07
2024-05-09T05:10:05.943Z,17.99
2024-05-09T05:13:10.611Z,18.09
2024-05-09T05:15:57.850Z,18.11
2024-05-09T05:18:44.783Z,18.15
2024-05-09T05:21:31.239Z,18.15
2024-05-09T05:24:17.753Z,18.15
2024-05-09T05:27:03.802Z,18.12
2024-05-09T05:29:49.979Z,18.17
2024-05-09T05:32:36.607Z,18.21
2024-05-09T05:35:23.021Z,18.23
2024-05-09T05:38:10.528Z,18.25
2024-05-09T05:40:57.074Z,18.27
2024-05-09T05:43:43.569Z,18.29
2024-05-09T05:46:29.613Z,18.32
2024-05-09T05:49:15.999Z,18.33
2024-05-09T05:52:02.320Z,18.35
2024-05-09T05:54:49.426Z,18.33
2024-05-09T05:57:35.593Z,18.31
2024-05-09T06:00:29.398Z,18.33
2024-05-09T06:03:22.102Z,18.32
2024-05-09T06:06:08.578Z,18.28
2024-05-09T06:08:55.146Z,18.29
2024-05-09T06:11:42.659Z,18.29
2024-05-09T06:14:29.241Z,18.25
2024-05-09T06:17:15.730Z,18.25
2024-05-09T06:20:02.214Z,18.24
2024-05-09T06:22:48.740Z,18.20
2024-05-09T06:25:36.024Z,18.24
2024-05-09T06:28:22.291Z,18.15
2024-05-09T06:31:08.296Z,18.15
2024-05-09T06:33:54.531Z,18.12
2024-05-09T06:36:46.080Z,18.14
2024-05-09T06:39:32.732Z,18.11
2024-05-09T06:42:20.251Z,18.11
2024-05-09T06:45:06.871Z,18.09
2024-05-09T06:47:53.566Z,18.16
2024-05-09T06:50:40.456Z,18.17
2024-05-09T06:53:26.954Z,18.21
2024-05-09T06:56:14.394Z,18.22
2024-05-09T06:59:00.743Z,18.26
2024-05-09T07:01:47.259Z,18.28
2024-05-09T07:04:33.436Z,18.28
2024-05-09T07:07:19.929Z,18.31
2024-05-09T07:10:07.818Z,18.32
2024-05-09T07:12:56.396Z,18.38
2024-05-09T07:15:43.647Z,18.45
2024-05-09T07:18:31.802Z,18.37
2024-05-09T07:21:18.444Z,18.46
2024-05-09T07:24:05.312Z,18.49
2024-05-09T07:26:51.602Z,18.53
2024-05-09T07:29:38.665Z,18.50
2024-05-09T07:32:25.320Z,18.60
2024-05-09T07:35:11.738Z,18.64
2024-05-09T07:37:57.788Z,18.63
2024-05-09T07:40:44.326Z,18.66
2024-05-09T07:43:30.222Z,18.74
2024-05-09T07:47:14.226Z,18.70
2024-05-09T07:53:29.735Z,18.75
2024-05-09T07:55:20.031Z,18.85
2024-05-09T07:58:06.808Z,18.88
2024-05-09T08:00:54.410Z,18.93
2024-05-09T08:03:41.375Z,18.97
2024-05-09T08:06:28.137Z,18.97
2024-05-09T08:09:19.615Z,19.03
2024-05-09T08:12:09.499Z,19.01
2024-05-09T08:14:56.769Z,19.04
2024-05-09T08:17:43.082Z,19.07
2024-05-09T08:20:33.670Z,19.06
2024-05-09T08:23:23.806Z,19.05
2024-05-09T08:26:10.753Z,19.03
2024-05-09T08:28:56.747Z,19.12
2024-05-09T08:31:42.973Z,19.15
2024-05-09T08:34:29.593Z,19.19
2024-05-09T08:37:22.110Z,19.22
2024-05-09T08:40:23.480Z,19.21
2024-05-09T08:43:14.440Z,19.27
2024-05-09T08:46:02.521Z,19.29
2024-05-09T08:48:50.108Z,19.31
2024-05-09T08:51:41.572Z,19.31
2024-05-09T08:54:30.715Z,19.31
2024-05-09T08:57:17.334Z,19.35
2024-05-09T09:00:09.981Z,19.30
2024-05-09T09:03:00.291Z,19.37
2024-05-09T09:06:10.990Z,19.34
2024-05-09T09:08:57.446Z,19.38
2024-05-09T09:11:43.910Z,19.38
2024-05-09T09:14:30.409Z,19.40
2024-05-09T09:17:17.502Z,19.42
2024-05-09T09:20:04.475Z,19.45
2024-05-09T09:22:52.827Z,19.49
2024-05-09T09:25:42.487Z,19.56
2024-05-09T09:28:29.626Z,19.58
2024-05-09T09:31:19.868Z,19.62
2024-05-09T09:34:07.810Z,19.66
2024-05-09T09:37:07.009Z,19.73
2024-05-09T09:39:53.719Z,19.76
2024-05-09T09:42:41.179Z,19.77
2024-05-09T09:45:31.903Z,19.77
2024-05-09T09:48:20.057Z,19.83
2024-05-09T09:51:07.160Z,19.88
2024-05-09T09:53:53.557Z,19.82
2024-05-09T09:56:40.090Z,19.83
2024-05-09T09:59:26.198Z,19.88
2024-05-09T10:02:14.074Z,19.93
2024-05-09T10:05:00.839Z,19.92
2024-05-09T10:07:47.631Z,19.91
2024-05-09T10:10:35.183Z,19.88
2024-05-09T10:13:33.045Z,19.88
2024-05-09T10:16:23.254Z,19.91
2024-05-09T10:19:10.888Z,19.88
2024-05-09T10:22:04.275Z,19.91
2024-05-09T10:24:54.590Z,19.92
2024-05-09T10:27:40.919Z,19.97
2024-05-09T10:30:34.108Z,20.03
2024-05-09T10:33:22.713Z,20.04
2024-05-09T10:36:22.575Z,20.05
2024-05-09T10:39:09.031Z,20.04
2024-05-09T10:41:55.048Z,20.08
2024-05-09T10:44:42.699Z,20.10
2024-05-09T10:47:29.726Z,20.16
2024-05-09T10:50:22.590Z,20.18
2024-05-09T10:53:14.516Z,20.16
2024-05-09T10:56:01.759Z,20.13
2024-05-09T10:58:51.542Z,20.13
2024-05-09T11:01:37.583Z,20.08
2024-05-09T11:04:24.441Z,20.04
2024-05-09T11:07:13.652Z,20.09
2024-05-09T11:10:01.800Z,20.07
2024-05-09T11:12:48.137Z,20.05
2024-05-09T11:15:43.908Z,20.02
2024-05-09T11:18:35.257Z,20.04
2024-05-09T11:21:24.754Z,20.04
2024-05-09T11:24:11.956Z,20.09
2024-05-09T11:26:59.719Z,20.13
2024-05-09T11:29:47.541Z,20.10
2024-05-09T11:32:34.116Z,20.14
2024-05-09T11:35:21.173Z,20.17
2024-05-09T11:38:07.168Z,20.16
2024-05-09T11:40:53.459Z,20.16
2024-05-09T11:43:39.986Z,20.21
2024-05-09T11:46:26.491Z,20.15
2024-05-09T11:49:13.514Z,20.09
2024-05-09T11:51:59.990Z,20.10
2024-05-09T11:54:46.377Z,20.19
2024-05-09T11:57:33.206Z,20.20
2024-05-09T12:00:29.066Z,20.25
2024-05-09T12:03:25.504Z,20.28
2024-05-09T12:06:12.196Z,20.36
2024-05-09T12:08:58.728Z,20.41
2024-05-09T12:11:44.990Z,20.45
2024-05-09T12:14:30.824Z,20.52
2024-05-09T12:17:17.397Z,20.59
2024-05-09T12:20:07.088Z,20.60
2024-05-09T12:22:55.695Z,20.70
2024-05-09T12:25:42.541Z,20.74
2024-05-09T12:28:28.987Z,20.79
2024-05-09T12:31:15.575Z,20.81
2024-05-09T12:34:02.312Z,20.82
2024-05-09T12:36:48.904Z,20.86
2024-05-09T12:39:35.529Z,20.85
2024-05-09T12:42:27.278Z,20.93
2024-05-09T12:45:15.065Z,20.93
2024-05-09T12:48:01.726Z,20.96
2024-05-09T12:50:48.312Z,21.03
2024-05-09T12:53:36.417Z,21.06
2024-05-09T12:56:22.502Z,21.04
2024-05-09T12:59:08.496Z,21.04
2024-05-09T13:01:57.227Z,21.07
2024-05-09T13:04:45.627Z,21.07
2024-05-09T13:07:31.874Z,21.09
2024-05-09T13:10:28.617Z,21.12
2024-05-09T13:13:18.978Z,21.10
2024-05-09T13:16:05.933Z,21.16
2024-05-09T13:18:58.978Z,21.20
2024-05-09T13:21:47.229Z,21.22
2024-05-09T13:24:33.384Z,21.29
2024-05-09T13:27:21.150Z,21.33
2024-05-09T13:30:11.899Z,21.40
2024-05-09T13:33:01.056Z,21.47
2024-05-09T13:35:50.386Z,21.61
2024-05-09T13:38:37.544Z,21.75
2024-05-09T13:41:23.689Z,21.88
2024-05-09T13:44:10.032Z,21.98
2024-05-09T13:46:56.430Z,22.11
2024-05-09T13:49:43.259Z,22.20
2024-05-09T13:52:29.586Z,22.24
2024-05-09T13:55:16.359Z,22.31
2024-05-09T13:58:03.477Z,22.48
2024-05-09T14:00:49.964Z,22.63
2024-05-09T14:03:36.556Z,22.73
2024-05-09T14:06:23.055Z,22.78
2024-05-09T14:09:09.975Z,22.84
2024-05-09T14:11:56.408Z,22.90
2024-05-09T14:14:43.007Z,22.91
2024-05-09T14:17:29.110Z,22.91
2024-05-09T14:20:23.809Z,22.89
2024-05-09T14:23:17.986Z,22.94
2024-05-09T14:26:04.934Z,22.94
2024-05-09T14:28:51.116Z,23.08
2024-05-09T14:31:39.379Z,23.12
2024-05-09T14:34:26.131Z,23.14
2024-05-09T14:37:12.803Z,23.14
2024-05-09T14:39:59.698Z,23.11
2024-05-09T14:42:46.230Z,23.03
2024-05-09T14:45:32.855Z,22.97
2024-05-09T14:48:20.271Z,22.84
2024-05-09T14:51:06.457Z,22.81
2024-05-09T14:53:52.732Z,22.70
2024-05-09T14:56:39.154Z,22.56
2024-05-09T14:59:25.042Z,22.54
2024-05-09T15:02:11.812Z,22.43
2024-05-09T15:04:58.852Z,22.34
2024-05-09T15:07:45.576Z,22.31
2024-05-09T15:10:35.558Z,22.29
2024-05-09T15:13:24.727Z,22.19
2024-05-09T15:16:15.411Z,22.24
2024-05-09T15:19:11.856Z,22.22
2024-05-09T15:22:03.620Z,22.12
2024-05-09T15:24:50.094Z,22.05
2024-05-09T15:27:36.660Z,21.87
2024-05-09T15:30:30.237Z,21.78
2024-05-09T15:33:19.523Z,21.69
2024-05-09T15:36:06.241Z,21.65
2024-05-09T15:38:52.778Z,21.58
2024-05-09T15:41:39.262Z,21.50
2024-05-09T15:44:25.864Z,21.45
2024-05-09T15:47:11.842Z,21.37
2024-05-09T15:49:58.545Z,21.28
2024-05-09T15:52:45.157Z,21.06
2024-05-09T15:55:34.714Z,20.90
2024-05-09T15:58:22.089Z,20.77
2024-05-09T16:01:08.679Z,20.69
2024-05-09T16:03:55.302Z,20.60
2024-05-09T16:06:41.862Z,20.49
2024-05-09T16:09:28.428Z,20.37
2024-05-09T16:12:14.926Z,20.29
2024-05-09T16:15:01.176Z,20.20
2024-05-09T16:17:47.807Z,20.11
2024-05-09T16:20:40.045Z,20.04
2024-05-09T16:23:32.250Z,19.97
2024-05-09T16:26:19.007Z,19.90
2024-05-09T16:29:05.137Z,19.81
2024-05-09T16:31:51.715Z,19.70
2024-05-09T16:34:37.919Z,19.67
2024-05-09T16:37:28.192Z,19.59
2024-05-09T16:40:24.882Z,19.49
2024-05-09T16:43:19.860Z,19.39
2024-05-09T16:46:06.610Z,19.35
2024-05-09T16:48:53.077Z,19.32
2024-05-09T16:51:39.617Z,19.24
2024-05-09T16:54:26.225Z,19.25
2024-05-09T16:57:12.276Z,19.23
2024-05-09T16:59:58.443Z,19.20
2024-05-09T17:02:45.134Z,19.15
2024-05-09T17:05:32.091Z,19.09
2024-05-09T17:08:18.696Z,19.05
2024-05-09T17:11:05.652Z,19.00
2024-05-09T17:13:52.205Z,18.98
2024-05-09T17:16:38.357Z,18.92
2024-05-09T17:19:24.986Z,18.87
2024-05-09T17:22:11.724Z,18.86
2024-05-09T17:24:58.135Z,18.83
2024-05-09T17:27:44.727Z,18.78
2024-05-09T17:30:35.552Z,18.76
2024-05-09T17:33:24.447Z,18.67
2024-05-09T17:36:10.881Z,18.67
2024-05-09T17:38:57.010Z,18.59
2024-05-09T17:41:46.187Z,18.57
2024-05-09T17:44:32.718Z,18.53
2024-05-09T17:47:19.130Z,18.45
2024-05-09T17:50:11.735Z,18.41
2024-05-09T17:53:04.003Z,18.37
2024-05-09T17:55:56.372Z,18.39
2024-05-09T17:58:44.575Z,18.36
2024-05-09T18:01:32.067Z,18.33
2024-05-09T18:04:20.376Z,18.33
2024-05-09T18:07:08.082Z,18.27
2024-05-09T18:09:54.862Z,18.26
2024-05-09T18:12:41.587Z,18.16
2024-05-09T18:15:28.279Z,18.14
2024-05-09T18:18:14.985Z,18.12
2024-05-09T18:21:01.565Z,18.05
2024-05-09T18:23:47.638Z,18.08
2024-05-09T18:26:34.139Z,18.01
2024-05-09T18:29:22.286Z,17.99
2024-05-09T18:32:09.098Z,17.96
2024-05-09T18:34:55.600Z,17.89
2024-05-09T18:37:43.179Z,17.88
2024-05-09T18:40:34.418Z,17.85
2024-05-09T18:43:28.911Z,17.82
2024-05-09T18:46:21.614Z,17.75
2024-05-09T18:49:08.553Z,17.73
2024-05-09T18:51:54.859Z,17.75
2024-05-09T18:54:41.450Z,17.72
2024-05-09T18:57:28.686Z,17.66
2024-05-09T19:00:26.660Z,17.68
2024-05-09T19:03:20.245Z,17.62
2024-05-09T19:06:07.279Z,17.62
2024-05-09T19:08:53.785Z,17.61
2024-05-09T19:11:40.242Z,17.60
2024-05-09T19:14:26.512Z,17.57
2024-05-09T19:17:12.550Z,17.57
2024-05-09T19:19:58.705Z,17.54
2024-05-09T19:22:45.307Z,17.54
2024-05-09T19:25:32.499Z,17.51
2024-05-09T19:28:20.867Z,17.56
2024-05-09T19:31:07.338Z,17.56
2024-05-09T19:33:53.594Z,17.48
2024-05-09T19:36:40.286Z,17.52
2024-05-09T19:39:26.977Z,17.47
2024-05-09T19:42:13.567Z,17.53
2024-05-09T19:45:00.127Z,17.52
2024-05-09T19:47:47.176Z,17.51
2024-05-09T19:50:40.994Z,17.50
2024-05-09T19:53:30.885Z,17.51
2024-05-09T19:56:17.379Z,17.47
2024-05-09T19:59:04.407Z,17.46
2024-05-09T20:01:50.652Z,17.41
2024-05-09T20:04:37.445Z,17.43
2024-05-09T20:07:23.946Z,17.40
2024-05-09T20:10:16.725Z,17.40
2024-05-09T20:13:09.647Z,17.39
2024-05-09T20:15:56.334Z,17.33
2024-05-09T20:18:43.032Z,17.34
2024-05-09T20:21:30.783Z,17.30
2024-05-09T20:24:17.418Z,17.27
2024-05-09T20:27:04.259Z,17.26
2024-05-09T20:29:50.765Z,17.21
2024-05-09T20:32:37.464Z,17.25
2024-05-09T20:35:24.026Z,17.21
2024-05-09T20:38:10.272Z,17.23
2024-05-09T20:40:56.915Z,17.23
2024-05-09T20:43:44.947Z,17.22
2024-05-09T20:46:31.133Z,17.23
2024-05-09T20:49:18.327Z,17.17
2024-05-09T20:52:05.215Z,17.19
2024-05-09T20:54:51.578Z,17.17
2024-05-09T20:57:38.266Z,17.10
2024-05-09T21:00:35.118Z,17.16
2024-05-09T21:03:26.216Z,17.16
2024-05-09T21:06:12.982Z,17.12
2024-05-09T21:08:59.352Z,17.11
2024-05-09T21:11:46.061Z,17.12
2024-05-09T21:14:32.742Z,17.06
2024-05-09T21:17:18.748Z,17.09
2024-05-09T21:20:11.410Z,17.09
2024-05-09T21:23:01.876Z,17.08
2024-05-09T21:25:48.882Z,17.07
2024-05-09T21:28:35.133Z,17.09
2024-05-09T21:31:21.663Z,16.94
2024-05-09T21:34:08.185Z,17.07
2024-05-09T21:36:55.417Z,17.06
2024-05-09T21:39:41.822Z,17.06
2024-05-09T21:42:28.331Z,17.06
2024-05-09T21:45:15.016Z,17.02
2024-05-09T21:48:03.673Z,17.03
2024-05-09T21:50:49.911Z,17.02
2024-05-09T21:53:37.806Z,16.99
2024-05-09T21:56:25.313Z,17.00
2024-05-09T21:59:11.438Z,17.00
2024-05-09T22:01:58.929Z,16.88
2024-05-09T22:04:45.388Z,17.00
2024-05-09T22:07:31.865Z,16.97
2024-05-09T22:10:25.674Z,16.97
2024-05-09T22:13:18.822Z,16.95
2024-05-09T22:16:05.449Z,16.92
2024-05-09T22:18:51.959Z,16.89
2024-05-09T22:21:38.463Z,16.83
2024-05-09T22:24:25.092Z,16.89
2024-05-09T22:27:12.032Z,16.87
2024-05-09T22:29:58.314Z,16.84
2024-05-09T22:32:44.279Z,16.86
2024-05-09T22:35:30.811Z,16.85
2024-05-09T22:38:16.888Z,16.79
2024-05-09T22:41:07.176Z,16.83
2024-05-09T22:43:53.650Z,16.83
2024-05-09T22:46:39.872Z,16.82
2024-05-09T22:49:25.969Z,16.82
2024-05-09T22:52:12.495Z,16.80
2024-05-09T22:54:59.248Z,16.83
2024-05-09T22:57:45.509Z,16.81
2024-05-09T23:00:33.314Z,16.80
2024-05-09T23:03:21.815Z,16.82
2024-05-09T23:06:08.765Z,16.81
2024-05-09T23:08:54.964Z,16.77
2024-05-09T23:11:42.099Z,16.79
2024-05-09T23:14:28.199Z,16.79
2024-05-09T23:17:14.265Z,16.75
2024-05-09T23:20:00.932Z,16.75
2024-05-09T23:22:47.695Z,16.77
2024-05-09T23:25:34.546Z,16.74
2024-05-09T23:28:20.815Z,16.71
2024-05-09T23:31:07.241Z,16.71
2024-05-09T23:33:55.290Z,16.75
2024-05-09T23:36:42.413Z,16.72
2024-05-09T23:39:28.780Z,16.70
2024-05-09T23:42:14.847Z,16.70
2024-05-09T23:45:01.051Z,16.63
2024-05-09T23:47:47.502Z,16.67
2024-05-09T23:50:36.911Z,16.69
2024-05-09T23:53:24.983Z,16.62
2024-05-09T23:56:16.845Z,16.67
2024-05-09T23:59:02.885Z,16.67
